sensor_id;sensor_type;location;lat;lon;timestamp;pressure;altitude;pressure_sealevel;temperature;humidity
37368;BME280;23240;43.210;27.910;2023-02-28T00:00:30;102041.91;;;7.82;100.00
37368;BME280;23240;43.210;27.910;2023-02-28T00:02:56;102052.44;;;7.85;100.00
37368;BME280;23240;43.210;27.910;2023-02-28T00:05:22;102057.44;;;7.91;100.00
37368;BME280;23240;43.210;27.910;2023-02-28T00:07:48;102055.34;;;7.97;100.00
37368;BME280;23240;43.210;27.910;2023-02-28T00:10:15;102050.09;;;7.96;100.00
37368;BME280;23240;43.210;27.910;2023-02-28T00:12:40;102064.50;;;7.92;100.00
37368;BME280;23240;43.210;27.910;2023-02-28T00:15:06;102068.25;;;7.88;100.00
37368;BME280;23240;43.210;27.910;2023-02-28T00:17:32;102071.88;;;7.87;100.00
37368;BME280;23240;43.210;27.910;2023-02-28T00:19:58;102070.03;;;7.89;100.00
37368;BME280;23240;43.210;27.910;2023-02-28T00:22:40;102067.50;;;7.86;100.00
37368;BME280;23240;43.210;27.910;2023-02-28T00:25:06;102072.19;;;7.81;100.00
37368;BME280;23240;43.210;27.910;2023-02-28T00:27:32;102060.34;;;7.86;100.00
37368;BME280;23240;43.210;27.910;2023-02-28T00:29:58;102063.81;;;7.88;100.00
37368;BME280;23240;43.210;27.910;2023-02-28T00:32:23;102064.38;;;7.95;100.00
37368;BME280;23240;43.210;27.910;2023-02-28T00:34:49;102065.38;;;7.92;100.00
37368;BME280;23240;43.210;27.910;2023-02-28T00:37:14;102053.16;;;7.88;100.00
37368;BME280;23240;43.210;27.910;2023-02-28T00:39:39;102048.81;;;7.86;100.00
37368;BME280;23240;43.210;27.910;2023-02-28T00:42:05;102052.97;;;7.91;100.00
37368;BME280;23240;43.210;27.910;2023-02-28T00:44:31;102052.13;;;7.91;100.00
37368;BME280;23240;43.210;27.910;2023-02-28T00:46:56;102059.25;;;7.90;100.00
37368;BME280;23240;43.210;27.910;2023-02-28T00:49:22;102064.91;;;7.84;100.00
37368;BME280;23240;43.210;27.910;2023-02-28T00:51:48;102063.41;;;7.79;100.00
37368;BME280;23240;43.210;27.910;2023-02-28T00:54:13;102060.88;;;7.76;100.00
37368;BME280;23240;43.210;27.910;2023-02-28T00:56:38;102064.97;;;7.83;100.00
37368;BME280;23240;43.210;27.910;2023-02-28T00:59:04;102068.88;;;7.76;100.00
37368;BME280;23240;43.210;27.910;2023-02-28T01:01:29;102050.00;;;7.80;100.00
37368;BME280;23240;43.210;27.910;2023-02-28T01:03:55;102048.69;;;7.89;100.00
37368;BME280;23240;43.210;27.910;2023-02-28T01:06:20;102045.59;;;7.96;100.00
37368;BME280;23240;43.210;27.910;2023-02-28T01:08:45;102058.47;;;7.88;100.00
37368;BME280;23240;43.210;27.910;2023-02-28T01:11:11;102074.22;;;7.76;100.00
37368;BME280;23240;43.210;27.910;2023-02-28T01:13:37;102079.69;;;7.72;100.00
37368;BME280;23240;43.210;27.910;2023-02-28T01:16:02;102089.41;;;7.73;100.00
37368;BME280;23240;43.210;27.910;2023-02-28T01:18:28;102094.69;;;7.75;100.00
37368;BME280;23240;43.210;27.910;2023-02-28T01:20:53;102103.00;;;7.69;100.00
37368;BME280;23240;43.210;27.910;2023-02-28T01:23:19;102086.09;;;7.68;100.00
37368;BME280;23240;43.210;27.910;2023-02-28T01:25:45;102086.75;;;7.73;100.00
37368;BME280;23240;43.210;27.910;2023-02-28T01:28:10;102108.09;;;7.73;100.00
37368;BME280;23240;43.210;27.910;2023-02-28T01:30:36;102103.47;;;7.77;100.00
37368;BME280;23240;43.210;27.910;2023-02-28T01:33:01;102099.94;;;7.77;100.00
37368;BME280;23240;43.210;27.910;2023-02-28T01:35:27;102093.66;;;7.78;100.00
37368;BME280;23240;43.210;27.910;2023-02-28T01:37:52;102082.84;;;7.81;100.00
37368;BME280;23240;43.210;27.910;2023-02-28T01:40:17;102090.31;;;7.74;100.00
37368;BME280;23240;43.210;27.910;2023-02-28T01:42:43;102097.41;;;7.73;100.00
37368;BME280;23240;43.210;27.910;2023-02-28T01:45:27;102085.59;;;7.79;100.00
37368;BME280;23240;43.210;27.910;2023-02-28T01:48:03;102090.22;;;7.76;100.00
37368;BME280;23240;43.210;27.910;2023-02-28T01:50:31;102095.56;;;7.76;100.00
37368;BME280;23240;43.210;27.910;2023-02-28T01:52:59;102103.78;;;7.71;100.00
37368;BME280;23240;43.210;27.910;2023-02-28T01:55:26;102099.91;;;7.59;100.00
37368;BME280;23240;43.210;27.910;2023-02-28T01:57:55;102097.44;;;7.36;100.00
37368;BME280;23240;43.210;27.910;2023-02-28T02:00:21;102098.81;;;7.26;100.00
37368;BME280;23240;43.210;27.910;2023-02-28T02:02:50;102111.25;;;7.25;100.00
37368;BME280;23240;43.210;27.910;2023-02-28T02:05:20;102112.72;;;7.32;100.00
37368;BME280;23240;43.210;27.910;2023-02-28T02:07:46;102104.84;;;7.29;100.00
37368;BME280;23240;43.210;27.910;2023-02-28T02:17:38;102117.63;;;7.41;100.00
37368;BME280;23240;43.210;27.910;2023-02-28T02:23:07;102123.38;;;7.32;100.00
37368;BME280;23240;43.210;27.910;2023-02-28T02:25:43;102105.28;;;7.39;100.00
37368;BME280;23240;43.210;27.910;2023-02-28T02:36:05;102103.34;;;7.24;100.00
37368;BME280;23240;43.210;27.910;2023-02-28T02:41:12;102102.56;;;7.21;100.00
37368;BME280;23240;43.210;27.910;2023-02-28T02:43:50;102090.16;;;7.20;100.00
37368;BME280;23240;43.210;27.910;2023-02-28T02:46:18;102098.16;;;7.20;100.00
37368;BME280;23240;43.210;27.910;2023-02-28T02:48:45;102126.94;;;7.12;100.00
37368;BME280;23240;43.210;27.910;2023-02-28T02:51:13;102142.72;;;7.17;100.00
37368;BME280;23240;43.210;27.910;2023-02-28T02:53:56;102133.59;;;7.22;100.00
37368;BME280;23240;43.210;27.910;2023-02-28T02:56:25;102107.66;;;7.26;100.00
37368;BME280;23240;43.210;27.910;2023-02-28T02:58:51;102111.84;;;7.32;100.00
37368;BME280;23240;43.210;27.910;2023-02-28T03:01:21;102113.28;;;7.39;100.00
37368;BME280;23240;43.210;27.910;2023-02-28T03:03:54;102101.75;;;7.38;100.00
37368;BME280;23240;43.210;27.910;2023-02-28T03:06:19;102115.16;;;7.37;100.00
37368;BME280;23240;43.210;27.910;2023-02-28T03:08:44;102118.63;;;7.39;100.00
37368;BME280;23240;43.210;27.910;2023-02-28T03:11:13;102131.59;;;7.46;100.00
37368;BME280;23240;43.210;27.910;2023-02-28T03:21:38;102163.91;;;7.59;100.00
37368;BME280;23240;43.210;27.910;2023-02-28T03:24:40;102155.00;;;7.59;100.00
37368;BME280;23240;43.210;27.910;2023-02-28T03:27:07;102145.00;;;7.45;100.00
37368;BME280;23240;43.210;27.910;2023-02-28T03:29:38;102128.28;;;7.41;100.00
37368;BME280;23240;43.210;27.910;2023-02-28T03:34:32;102140.94;;;7.17;100.00
37368;BME280;23240;43.210;27.910;2023-02-28T03:37:07;102148.72;;;7.22;100.00
37368;BME280;23240;43.210;27.910;2023-02-28T03:39:38;102134.56;;;7.20;100.00
37368;BME280;23240;43.210;27.910;2023-02-28T03:42:26;102148.72;;;7.22;100.00
37368;BME280;23240;43.210;27.910;2023-02-28T03:44:52;102139.00;;;7.21;100.00
37368;BME280;23240;43.210;27.910;2023-02-28T03:47:21;102152.31;;;7.21;100.00
37368;BME280;23240;43.210;27.910;2023-02-28T03:50:12;102155.31;;;7.13;100.00
37368;BME280;23240;43.210;27.910;2023-02-28T03:52:36;102166.91;;;7.12;100.00
37368;BME280;23240;43.210;27.910;2023-02-28T03:55:05;102171.44;;;7.10;100.00
37368;BME280;23240;43.210;27.910;2023-02-28T03:57:38;102171.44;;;7.10;100.00
37368;BME280;23240;43.210;27.910;2023-02-28T04:02:32;102178.91;;;7.02;100.00
37368;BME280;23240;43.210;27.910;2023-02-28T04:04:57;102167.25;;;7.05;100.00
37368;BME280;23240;43.210;27.910;2023-02-28T04:07:24;102167.31;;;7.03;100.00
37368;BME280;23240;43.210;27.910;2023-02-28T04:09:50;102158.59;;;7.00;100.00
37368;BME280;23240;43.210;27.910;2023-02-28T04:12:15;102155.34;;;6.93;100.00
37368;BME280;23240;43.210;27.910;2023-02-28T04:14:40;102152.88;;;6.88;100.00
37368;BME280;23240;43.210;27.910;2023-02-28T04:17:06;102154.13;;;6.80;100.00
37368;BME280;23240;43.210;27.910;2023-02-28T04:19:31;102166.72;;;6.76;100.00
37368;BME280;23240;43.210;27.910;2023-02-28T04:21:56;102166.19;;;6.88;100.00
37368;BME280;23240;43.210;27.910;2023-02-28T04:24:23;102161.63;;;6.92;100.00
37368;BME280;23240;43.210;27.910;2023-02-28T04:26:50;102155.53;;;6.88;100.00
37368;BME280;23240;43.210;27.910;2023-02-28T04:29:23;102154.97;;;6.82;100.00
37368;BME280;23240;43.210;27.910;2023-02-28T04:31:48;102154.13;;;6.80;100.00
37368;BME280;23240;43.210;27.910;2023-02-28T04:34:14;102156.81;;;6.80;100.00
37368;BME280;23240;43.210;27.910;2023-02-28T04:36:39;102151.88;;;6.91;100.00
37368;BME280;23240;43.210;27.910;2023-02-28T04:39:05;102147.81;;;7.03;100.00
37368;BME280;23240;43.210;27.910;2023-02-28T04:41:30;102137.91;;;7.06;100.00
37368;BME280;23240;43.210;27.910;2023-02-28T04:43:56;102143.22;;;7.06;100.00
37368;BME280;23240;43.210;27.910;2023-02-28T04:46:21;102130.56;;;7.11;100.00
37368;BME280;23240;43.210;27.910;2023-02-28T04:48:46;102132.28;;;7.12;100.00
37368;BME280;23240;43.210;27.910;2023-02-28T04:51:13;102129.38;;;6.98;100.00
37368;BME280;23240;43.210;27.910;2023-02-28T04:53:39;102139.75;;;6.84;100.00
37368;BME280;23240;43.210;27.910;2023-02-28T04:56:06;102140.25;;;6.73;100.00
37368;BME280;23240;43.210;27.910;2023-02-28T04:58:32;102156.13;;;6.75;100.00
37368;BME280;23240;43.210;27.910;2023-02-28T05:01:07;102138.50;;;6.72;100.00
37368;BME280;23240;43.210;27.910;2023-02-28T05:03:41;102145.75;;;6.68;100.00
37368;BME280;23240;43.210;27.910;2023-02-28T05:06:07;102157.19;;;6.70;100.00
37368;BME280;23240;43.210;27.910;2023-02-28T05:08:33;102156.06;;;6.76;100.00
37368;BME280;23240;43.210;27.910;2023-02-28T05:10:58;102154.41;;;6.74;100.00
37368;BME280;23240;43.210;27.910;2023-02-28T05:13:26;102144.03;;;6.67;100.00
37368;BME280;23240;43.210;27.910;2023-02-28T05:15:51;102149.47;;;6.64;100.00
37368;BME280;23240;43.210;27.910;2023-02-28T05:18:16;102167.09;;;6.67;100.00
37368;BME280;23240;43.210;27.910;2023-02-28T05:20:42;102167.06;;;6.68;100.00
37368;BME280;23240;43.210;27.910;2023-02-28T05:23:08;102183.03;;;6.68;100.00
37368;BME280;23240;43.210;27.910;2023-02-28T05:25:34;102167.66;;;6.75;100.00
37368;BME280;23240;43.210;27.910;2023-02-28T05:27:59;102175.44;;;6.80;100.00
37368;BME280;23240;43.210;27.910;2023-02-28T05:30:24;102172.66;;;6.83;100.00
37368;BME280;23240;43.210;27.910;2023-02-28T05:32:50;102177.72;;;6.89;100.00
37368;BME280;23240;43.210;27.910;2023-02-28T05:35:15;102184.56;;;6.94;100.00
37368;BME280;23240;43.210;27.910;2023-02-28T05:37:41;102202.81;;;7.04;100.00
37368;BME280;23240;43.210;27.910;2023-02-28T05:40:06;102216.81;;;7.09;100.00
37368;BME280;23240;43.210;27.910;2023-02-28T05:42:35;102242.59;;;7.08;100.00
37368;BME280;23240;43.210;27.910;2023-02-28T05:45:00;102247.25;;;7.03;100.00
37368;BME280;23240;43.210;27.910;2023-02-28T05:47:26;102260.47;;;7.06;100.00
37368;BME280;23240;43.210;27.910;2023-02-28T05:49:51;102272.50;;;7.15;100.00
37368;BME280;23240;43.210;27.910;2023-02-28T05:52:18;102281.22;;;7.18;100.00
37368;BME280;23240;43.210;27.910;2023-02-28T05:54:43;102258.69;;;7.05;100.00
37368;BME280;23240;43.210;27.910;2023-02-28T05:57:08;102250.56;;;6.88;100.00
37368;BME280;23240;43.210;27.910;2023-02-28T05:59:34;102241.66;;;6.67;100.00
37368;BME280;23240;43.210;27.910;2023-02-28T06:01:59;102243.31;;;6.49;100.00
37368;BME280;23240;43.210;27.910;2023-02-28T06:04:24;102238.78;;;6.29;100.00
37368;BME280;23240;43.210;27.910;2023-02-28T06:06:50;102252.75;;;6.12;100.00
37368;BME280;23240;43.210;27.910;2023-02-28T06:09:15;102275.31;;;6.02;100.00
37368;BME280;23240;43.210;27.910;2023-02-28T06:11:41;102275.75;;;5.90;100.00
37368;BME280;23240;43.210;27.910;2023-02-28T06:14:07;102273.97;;;5.90;100.00
37368;BME280;23240;43.210;27.910;2023-02-28T06:16:32;102271.81;;;5.77;100.00
37368;BME280;23240;43.210;27.910;2023-02-28T06:19:00;102273.63;;;5.75;100.00
37368;BME280;23240;43.210;27.910;2023-02-28T06:21:26;102272.38;;;5.85;100.00
37368;BME280;23240;43.210;27.910;2023-02-28T06:23:55;102262.47;;;5.90;100.00
37368;BME280;23240;43.210;27.910;2023-02-28T06:26:20;102275.31;;;6.02;100.00
37368;BME280;23240;43.210;27.910;2023-02-28T06:28:46;102280.09;;;6.16;100.00
37368;BME280;23240;43.210;27.910;2023-02-28T06:31:12;102269.28;;;6.21;100.00
37368;BME280;23240;43.210;27.910;2023-02-28T06:33:38;102269.66;;;6.33;100.00
37368;BME280;23240;43.210;27.910;2023-02-28T06:36:05;102268.75;;;6.34;100.00
37368;BME280;23240;43.210;27.910;2023-02-28T06:38:30;102269.28;;;6.42;100.00
37368;BME280;23240;43.210;27.910;2023-02-28T06:40:56;102267.31;;;6.48;100.00
37368;BME280;23240;43.210;27.910;2023-02-28T06:43:22;102256.78;;;6.44;100.00
37368;BME280;23240;43.210;27.910;2023-02-28T06:45:48;102252.25;;;6.47;100.00
37368;BME280;23240;43.210;27.910;2023-02-28T06:48:13;102249.94;;;6.39;100.00
37368;BME280;23240;43.210;27.910;2023-02-28T06:50:38;102258.13;;;6.33;100.00
37368;BME280;23240;43.210;27.910;2023-02-28T06:53:04;102263.47;;;6.33;100.00
37368;BME280;23240;43.210;27.910;2023-02-28T06:55:29;102268.78;;;6.33;100.00
37368;BME280;23240;43.210;27.910;2023-02-28T06:57:54;102260.00;;;6.31;100.00
37368;BME280;23240;43.210;27.910;2023-02-28T07:00:20;102261.72;;;6.32;100.00
37368;BME280;23240;43.210;27.910;2023-02-28T07:02:46;102260.19;;;6.26;100.00
37368;BME280;23240;43.210;27.910;2023-02-28T07:05:12;102255.84;;;6.24;100.00
37368;BME280;23240;43.210;27.910;2023-02-28T07:07:37;102259.72;;;6.38;100.00
37368;BME280;23240;43.210;27.910;2023-02-28T07:10:05;102254.94;;;6.25;100.00
37368;BME280;23240;43.210;27.910;2023-02-28T07:12:31;102264.66;;;6.26;100.00
37368;BME280;23240;43.210;27.910;2023-02-28T07:14:56;102269.47;;;6.38;100.00
37368;BME280;23240;43.210;27.910;2023-02-28T07:17:21;102267.38;;;6.46;100.00
37368;BME280;23240;43.210;27.910;2023-02-28T07:19:47;102266.94;;;6.57;100.00
37368;BME280;23240;43.210;27.910;2023-02-28T07:22:12;102258.66;;;6.64;100.00
37368;BME280;23240;43.210;27.910;2023-02-28T07:24:37;102259.31;;;6.69;100.00
37368;BME280;23240;43.210;27.910;2023-02-28T07:27:03;102261.00;;;6.72;100.00
37368;BME280;23240;43.210;27.910;2023-02-28T07:29:28;102263.97;;;6.64;100.00
37368;BME280;23240;43.210;27.910;2023-02-28T07:31:54;102260.25;;;6.68;100.00
37368;BME280;23240;43.210;27.910;2023-02-28T07:34:20;102253.44;;;6.83;100.00
37368;BME280;23240;43.210;27.910;2023-02-28T07:36:45;102248.69;;;6.90;100.00
37368;BME280;23240;43.210;27.910;2023-02-28T07:39:10;102244.47;;;7.06;100.00
37368;BME280;23240;43.210;27.910;2023-02-28T07:41:36;102241.81;;;7.06;100.00
37368;BME280;23240;43.210;27.910;2023-02-28T07:44:08;102234.72;;;7.05;100.00
37368;BME280;23240;43.210;27.910;2023-02-28T07:46:33;102231.53;;;6.97;100.00
37368;BME280;23240;43.210;27.910;2023-02-28T07:49:00;102238.53;;;7.00;100.00
37368;BME280;23240;43.210;27.910;2023-02-28T07:51:28;102248.13;;;7.04;100.00
37368;BME280;23240;43.210;27.910;2023-02-28T07:53:54;102247.06;;;7.08;100.00
37368;BME280;23240;43.210;27.910;2023-02-28T07:56:19;102241.19;;;7.20;100.00
37368;BME280;23240;43.210;27.910;2023-02-28T07:58:44;102232.53;;;7.15;100.00
37368;BME280;23240;43.210;27.910;2023-02-28T08:01:10;102258.59;;;7.08;100.00
37368;BME280;23240;43.210;27.910;2023-02-28T08:03:36;102261.31;;;7.07;100.00
37368;BME280;23240;43.210;27.910;2023-02-28T08:06:05;102271.13;;;7.06;100.00
37368;BME280;23240;43.210;27.910;2023-02-28T08:08:31;102287.88;;;7.08;100.00
37368;BME280;23240;43.210;27.910;2023-02-28T08:11:00;102279.34;;;7.00;100.00
37368;BME280;23240;43.210;27.910;2023-02-28T08:13:27;102288.28;;;7.19;100.00
37368;BME280;23240;43.210;27.910;2023-02-28T08:15:53;102285.22;;;7.29;100.00
37368;BME280;23240;43.210;27.910;2023-02-28T08:18:19;102290.84;;;7.22;100.00
37368;BME280;23240;43.210;27.910;2023-02-28T08:20:44;102288.28;;;7.19;100.00
37368;BME280;23240;43.210;27.910;2023-02-28T08:23:09;102279.91;;;7.08;100.00
37368;BME280;23240;43.210;27.910;2023-02-28T08:25:35;102283.81;;;7.00;100.00
37368;BME280;23240;43.210;27.910;2023-02-28T08:28:00;102292.47;;;7.05;100.00
37368;BME280;23240;43.210;27.910;2023-02-28T08:30:25;102299.09;;;7.16;100.00
37368;BME280;23240;43.210;27.910;2023-02-28T08:32:51;102290.94;;;7.19;100.00
37368;BME280;23240;43.210;27.910;2023-02-28T08:35:16;102291.44;;;7.29;100.00
37368;BME280;23240;43.210;27.910;2023-02-28T08:37:41;102285.78;;;7.16;100.00
37368;BME280;23240;43.210;27.910;2023-02-28T08:40:07;102277.72;;;7.18;100.00
37368;BME280;23240;43.210;27.910;2023-02-28T08:42:32;102283.38;;;7.31;100.00
37368;BME280;23240;43.210;27.910;2023-02-28T08:44:58;102287.22;;;7.44;100.00
37368;BME280;23240;43.210;27.910;2023-02-28T08:47:23;102280.78;;;7.50;100.00
37368;BME280;23240;43.210;27.910;2023-02-28T08:49:48;102282.81;;;7.43;100.00
37368;BME280;23240;43.210;27.910;2023-02-28T08:52:14;102285.31;;;7.27;100.00
37368;BME280;23240;43.210;27.910;2023-02-28T08:54:39;102286.16;;;7.28;100.00
37368;BME280;23240;43.210;27.910;2023-02-28T08:57:04;102289.16;;;7.20;100.00
37368;BME280;23240;43.210;27.910;2023-02-28T08:59:30;102294.03;;;7.31;100.00
37368;BME280;23240;43.210;27.910;2023-02-28T09:01:55;102296.31;;;7.40;100.00
37368;BME280;23240;43.210;27.910;2023-02-28T09:04:21;102297.03;;;7.43;100.00
37368;BME280;23240;43.210;27.910;2023-02-28T09:06:47;102286.56;;;7.59;100.00
37368;BME280;23240;43.210;27.910;2023-02-28T09:09:13;102280.78;;;7.68;100.00
37368;BME280;23240;43.210;27.910;2023-02-28T09:11:39;102278.09;;;7.70;100.00
37368;BME280;23240;43.210;27.910;2023-02-28T09:14:04;102278.78;;;7.73;100.00
37368;BME280;23240;43.210;27.910;2023-02-28T09:16:30;102280.59;;;7.73;100.00
37368;BME280;23240;43.210;27.910;2023-02-28T09:18:56;102273.03;;;7.83;100.00
37368;BME280;23240;43.210;27.910;2023-02-28T09:21:21;102273.94;;;7.83;100.00
37368;BME280;23240;43.210;27.910;2023-02-28T09:23:47;102270.38;;;7.83;100.00
37368;BME280;23240;43.210;27.910;2023-02-28T09:26:23;102277.31;;;7.87;100.00
37368;BME280;23240;43.210;27.910;2023-02-28T09:28:49;102275.22;;;7.75;100.00
37368;BME280;23240;43.210;27.910;2023-02-28T09:31:16;102280.53;;;7.75;100.00
37368;BME280;23240;43.210;27.910;2023-02-28T09:33:45;102278.13;;;7.68;100.00
37368;BME280;23240;43.210;27.910;2023-02-28T09:36:11;102284.19;;;7.72;100.00
37368;BME280;23240;43.210;27.910;2023-02-28T09:38:36;102284.41;;;7.67;100.00
37368;BME280;23240;43.210;27.910;2023-02-28T09:41:03;102287.53;;;7.77;100.00
37368;BME280;23240;43.210;27.910;2023-02-28T09:43:31;102285.97;;;7.92;100.00
37368;BME280;23240;43.210;27.910;2023-02-28T09:48:44;102295.53;;;7.77;100.00
37368;BME280;23240;43.210;27.910;2023-02-28T09:53:48;102292.81;;;7.79;100.00
37368;BME280;23240;43.210;27.910;2023-02-28T09:56:15;102294.41;;;7.62;100.00
37368;BME280;23240;43.210;27.910;2023-02-28T10:01:10;102310.78;;;7.73;100.00
37368;BME280;23240;43.210;27.910;2023-02-28T10:03:47;102302.13;;;7.68;100.00
37368;BME280;23240;43.210;27.910;2023-02-28T10:06:17;102305.13;;;7.81;100.00
37368;BME280;23240;43.210;27.910;2023-02-28T10:08:56;102314.00;;;7.82;100.00
37368;BME280;23240;43.210;27.910;2023-02-28T10:11:23;102306.22;;;7.96;100.00
37368;BME280;23240;43.210;27.910;2023-02-28T10:13:59;102303.78;;;8.10;100.00
37368;BME280;23240;43.210;27.910;2023-02-28T10:18:58;102299.75;;;8.20;100.00
37368;BME280;23240;43.210;27.910;2023-02-28T10:21:47;102293.41;;;8.04;100.00
37368;BME280;23240;43.210;27.910;2023-02-28T10:24:23;102293.25;;;7.88;100.00
37368;BME280;23240;43.210;27.910;2023-02-28T10:26:52;102288.38;;;7.78;100.00
37368;BME280;23240;43.210;27.910;2023-02-28T10:29:21;102282.03;;;7.61;100.00
37368;BME280;23240;43.210;27.910;2023-02-28T10:31:47;102281.66;;;7.50;100.00
37368;BME280;23240;43.210;27.910;2023-02-28T10:34:12;102266.50;;;7.51;100.00
37368;BME280;23240;43.210;27.910;2023-02-28T10:36:38;102260.91;;;7.57;100.00
37368;BME280;23240;43.210;27.910;2023-02-28T10:39:33;102267.28;;;7.53;100.00
37368;BME280;23240;43.210;27.910;2023-02-28T10:41:49;102263.16;;;7.66;100.00
37368;BME280;23240;43.210;27.910;2023-02-28T10:44:20;102266.34;;;7.74;100.00
37368;BME280;23240;43.210;27.910;2023-02-28T10:46:46;102263.47;;;7.79;100.00
37368;BME280;23240;43.210;27.910;2023-02-28T10:49:13;102256.78;;;7.89;100.00
37368;BME280;23240;43.210;27.910;2023-02-28T10:51:39;102260.50;;;7.85;100.00
37368;BME280;23240;43.210;27.910;2023-02-28T10:54:05;102247.69;;;7.74;100.00
37368;BME280;23240;43.210;27.910;2023-02-28T10:56:39;102247.47;;;7.79;100.00
37368;BME280;23240;43.210;27.910;2023-02-28T11:01:39;102237.28;;;7.87;100.00
37368;BME280;23240;43.210;27.910;2023-02-28T11:04:48;102240.97;;;7.84;100.00
37368;BME280;23240;43.210;27.910;2023-02-28T11:06:58;102242.19;;;7.77;100.00
37368;BME280;23240;43.210;27.910;2023-02-28T11:09:25;102246.78;;;7.73;100.00
37368;BME280;23240;43.210;27.910;2023-02-28T11:11:54;102231.94;;;7.87;100.00
37368;BME280;23240;43.210;27.910;2023-02-28T11:14:24;102233.84;;;8.22;100.00
37368;BME280;23240;43.210;27.910;2023-02-28T11:16:50;102237.22;;;8.45;100.00
37368;BME280;23240;43.210;27.910;2023-02-28T11:19:26;102237.75;;;8.70;100.00
37368;BME280;23240;43.210;27.910;2023-02-28T11:22:00;102229.19;;;8.81;100.00
37368;BME280;23240;43.210;27.910;2023-02-28T11:24:30;102240.28;;;8.36;100.00
37368;BME280;23240;43.210;27.910;2023-02-28T11:26:57;102226.31;;;8.12;100.00
37368;BME280;23240;43.210;27.910;2023-02-28T11:29:30;102229.66;;;7.98;100.00
37368;BME280;23240;43.210;27.910;2023-02-28T11:34:27;102210.59;;;7.87;100.00
37368;BME280;23240;43.210;27.910;2023-02-28T11:36:53;102215.94;;;7.87;100.00
37368;BME280;23240;43.210;27.910;2023-02-28T11:39:19;102220.56;;;7.83;100.00
37368;BME280;23240;43.210;27.910;2023-02-28T11:41:50;102225.19;;;7.80;100.00
37368;BME280;23240;43.210;27.910;2023-02-28T11:47:24;102201.09;;;7.81;100.00
37368;BME280;23240;43.210;27.910;2023-02-28T11:49:58;102209.59;;;7.89;100.00
37368;BME280;23240;43.210;27.910;2023-02-28T11:55:06;102207.22;;;7.64;100.00
37368;BME280;23240;43.210;27.910;2023-02-28T12:05:34;102204.81;;;7.58;100.00
37368;BME280;23240;43.210;27.910;2023-02-28T12:08:20;102188.38;;;7.67;100.00
37368;BME280;23240;43.210;27.910;2023-02-28T12:10:53;102195.75;;;7.62;100.00
37368;BME280;23240;43.210;27.910;2023-02-28T12:13:43;102186.97;;;7.60;100.00
37368;BME280;23240;43.210;27.910;2023-02-28T12:18:42;102205.22;;;7.49;100.00
37368;BME280;23240;43.210;27.910;2023-02-28T12:28:51;102208.84;;;7.48;100.00
37368;BME280;23240;43.210;27.910;2023-02-28T12:31:23;102208.84;;;7.48;100.00
37368;BME280;23240;43.210;27.910;2023-02-28T12:33:53;102206.16;;;7.48;100.00
37368;BME280;23240;43.210;27.910;2023-02-28T12:36:19;102212.13;;;7.34;100.00
37368;BME280;23240;43.210;27.910;2023-02-28T12:38:53;102212.28;;;7.31;100.00
37368;BME280;23240;43.210;27.910;2023-02-28T12:41:29;102217.81;;;7.27;100.00
37368;BME280;23240;43.210;27.910;2023-02-28T12:44:02;102209.41;;;7.36;100.00
37368;BME280;23240;43.210;27.910;2023-02-28T12:46:32;102203.78;;;7.42;100.00
37368;BME280;23240;43.210;27.910;2023-02-28T12:48:59;102197.72;;;7.38;100.00
37368;BME280;23240;43.210;27.910;2023-02-28T12:51:27;102204.47;;;7.27;100.00
37368;BME280;23240;43.210;27.910;2023-02-28T12:54:02;102191.19;;;7.25;100.00
37368;BME280;23240;43.210;27.910;2023-02-28T12:56:33;102202.69;;;7.27;100.00
37368;BME280;23240;43.210;27.910;2023-02-28T12:59:03;102204.19;;;7.33;100.00
37368;BME280;23240;43.210;27.910;2023-02-28T13:01:42;102206.47;;;7.42;100.00
37368;BME280;23240;43.210;27.910;2023-02-28T13:09:41;102205.16;;;7.11;100.00
37368;BME280;23240;43.210;27.910;2023-02-28T13:12:16;102202.22;;;7.17;100.00
37368;BME280;23240;43.210;27.910;2023-02-28T13:14:42;102200.69;;;7.12;100.00
37368;BME280;23240;43.210;27.910;2023-02-28T13:19:45;102203.84;;;7.01;100.00
37368;BME280;23240;43.210;27.910;2023-02-28T13:22:46;102211.47;;;7.09;100.00
37368;BME280;23240;43.210;27.910;2023-02-28T13:27:44;102204.34;;;7.09;100.00
37368;BME280;23240;43.210;27.910;2023-02-28T13:33:40;102203.69;;;7.04;100.00
37368;BME280;23240;43.210;27.910;2023-02-28T13:36:07;102207.00;;;7.09;100.00
37368;BME280;23240;43.210;27.910;2023-02-28T13:38:37;102205.69;;;6.99;100.00
37368;BME280;23240;43.210;27.910;2023-02-28T13:46:27;102215.41;;;6.80;100.00
37368;BME280;23240;43.210;27.910;2023-02-28T13:48:52;102203.09;;;6.77;100.00
37368;BME280;23240;43.210;27.910;2023-02-28T13:51:30;102207.69;;;6.74;100.00
37368;BME280;23240;43.210;27.910;2023-02-28T13:54:06;102210.06;;;6.80;100.00
37368;BME280;23240;43.210;27.910;2023-02-28T13:56:40;102193.63;;;6.70;100.00
37368;BME280;23240;43.210;27.910;2023-02-28T13:59:55;102191.63;;;6.75;100.00
37368;BME280;23240;43.210;27.910;2023-02-28T14:06:58;102178.38;;;6.74;100.00
37368;BME280;23240;43.210;27.910;2023-02-28T14:09:25;102191.03;;;6.68;100.00
37368;BME280;23240;43.210;27.910;2023-02-28T14:11:51;102182.75;;;6.54;100.00
37368;BME280;23240;43.210;27.910;2023-02-28T14:17:03;102195.88;;;6.59;100.00
37368;BME280;23240;43.210;27.910;2023-02-28T14:19:30;102192.19;;;6.61;100.00
37368;BME280;23240;43.210;27.910;2023-02-28T14:27:16;102195.34;;;6.71;100.00
37368;BME280;23240;43.210;27.910;2023-02-28T14:32:32;102185.91;;;6.64;100.00